Time;durP1;ratioP1;P1;durP2;ratioP2;P2;SDS_P1;SDS_P2;PMS_P1;PMS_P2;Temp;Humidity;BMP_temperature;BMP_pressure;BME280_temperature;BME280_humidity;BME280_pressure;Samples;Min_cycle;Max_cycle;Signal;HPM_P1;HPM_P2
2023/03/12 00:00:43;;;;;;;11.65;1.27;;;-0.40;72.30;;;;;;4162410;28;20037;-86
2023/03/12 00:03:04;;;;;;;11.65;1.25;;;-0.40;72.30;;;;;;4164478;28;20022;-85
2023/03/12 00:05:28;;;;;;;5.70;1.10;;;-0.30;72.30;;;;;;4160534;28;20041;-85
2023/03/12 00:07:52;;;;;;;8.68;1.60;;;-0.30;72.40;;;;;;4156067;28;20026;-85
2023/03/12 00:10:19;;;;;;;10.48;1.13;;;-0.40;72.30;;;;;;4155926;28;20029;-86
2023/03/12 00:12:46;;;;;;;10.30;1.40;;;-0.40;72.30;;;;;;4145114;28;20124;-85
2023/03/12 00:15:07;;;;;;;11.70;1.33;;;-0.30;72.30;;;;;;4145414;28;20030;-86
2023/03/12 00:17:31;;;;;;;13.40;1.85;;;-0.40;72.20;;;;;;4159507;28;20033;-84
2023/03/12 00:19:52;;;;;;;10.52;1.90;;;-0.50;72.00;;;;;;4141573;28;20045;-85
2023/03/12 00:22:15;;;;;;;9.77;1.23;;;-0.30;72.10;;;;;;4143799;28;20026;-85
2023/03/12 00:24:39;;;;;;;7.95;1.05;;;-0.40;72.00;;;;;;4161353;28;20111;-85
2023/03/12 00:27:02;;;;;;;7.85;0.90;;;-0.50;71.80;;;;;;4142666;28;20073;-84
2023/03/12 00:29:23;;;;;;;13.73;1.23;;;-0.30;72.10;;;;;;4158403;28;20033;-85
2023/03/12 00:31:47;;;;;;;18.35;1.25;;;-0.40;72.00;;;;;;4145832;28;20105;-86
2023/03/12 00:34:08;;;;;;;9.90;0.93;;;-0.40;72.00;;;;;;4142790;28;20030;-85
2023/03/12 00:36:33;;;;;;;16.35;1.10;;;-0.40;72.00;;;;;;4144508;28;20029;-85
2023/03/12 00:39:02;;;;;;;7.63;0.82;;;-0.40;71.80;;;;;;4157666;28;20048;-85
2023/03/12 00:41:24;;;;;;;9.15;1.08;;;-0.50;71.60;;;;;;4143489;28;20041;-85
2023/03/12 00:43:45;;;;;;;11.05;1.20;;;-0.40;71.70;;;;;;4161297;28;20033;-85
2023/03/12 00:46:06;;;;;;;3.33;0.73;;;-0.40;71.60;;;;;;4147219;28;20041;-84
2023/03/12 00:48:31;;;;;;;6.72;1.02;;;-0.40;71.70;;;;;;4159255;28;20025;-85
2023/03/12 00:50:52;;;;;;;8.65;0.98;;;-0.40;71.60;;;;;;4155544;28;20037;-86
2023/03/12 00:52:52;;;;;;;3.58;0.70;;;-0.50;71.50;;;;;;4143036;28;20041;-85
2023/03/12 00:54:57;;;;;;;7.00;0.93;;;-0.40;71.60;;;;;;4129596;28;20528;-85
2023/03/12 00:57:01;;;;;;;7.82;1.10;;;-0.60;71.30;;;;;;4159433;28;20041;-85
2023/03/12 00:59:04;;;;;;;4.80;0.82;;;-0.50;71.40;;;;;;4144518;28;20045;-86
2023/03/12 01:01:11;;;;;;;7.30;0.98;;;-0.50;71.40;;;;;;4159393;28;20087;-85
2023/03/12 01:03:13;;;;;;;6.40;0.70;;;-0.60;71.20;;;;;;4144969;28;20026;-85
2023/03/12 01:05:14;;;;;;;5.95;1.13;;;-0.60;71.20;;;;;;4143553;28;20034;-86
2023/03/12 01:07:22;;;;;;;6.30;1.17;;;-0.60;71.20;;;;;;4162812;28;20131;-85
2023/03/12 01:09:29;;;;;;;7.35;1.77;;;-0.50;71.10;;;;;;4165891;28;20032;-86
2023/03/12 01:11:38;;;;;;;9.55;3.25;;;-0.60;71.00;;;;;;4125255;28;20041;-86
2023/03/12 01:13:39;;;;;;;8.25;2.33;;;-0.60;71.00;;;;;;4137401;28;20057;-88
2023/03/12 01:15:43;;;;;;;4.57;1.35;;;-0.70;70.90;;;;;;4145531;28;20022;-86
2023/03/12 01:17:44;;;;;;;15.70;1.73;;;-0.60;70.90;;;;;;4144942;28;20026;-86
2023/03/12 01:19:45;;;;;;;5.80;1.08;;;-0.60;70.90;;;;;;4162687;28;21802;-84
2023/03/12 01:21:58;;;;;;;;;;;-0.60;71.00;;;;;;4126043;28;20037;-85
2023/03/12 01:24:40;;;;;;;2.47;0.70;;;-0.70;70.80;;;;;;4142074;28;19928;-85
2023/03/12 01:27:00;;;;;;;8.88;1.10;;;-0.70;70.80;;;;;;4156761;28;20045;-85
2023/03/12 01:29:27;;;;;;;10.90;1.27;;;-0.60;70.90;;;;;;4150219;28;20065;-86
2023/03/12 01:31:31;;;;;;;13.25;1.08;;;-0.70;71.50;;;;;;4125481;28;20022;-85
2023/03/12 01:33:52;;;;;;;5.25;0.98;;;-0.70;70.90;;;;;;4144758;28;20097;-85
2023/03/12 01:36:18;;;;;;;6.05;1.08;;;-0.70;70.90;;;;;;4158625;28;20029;-84
2023/03/12 01:38:44;;;;;;;4.35;0.57;;;-0.80;70.80;;;;;;4159765;28;20036;-85
2023/03/12 01:41:05;;;;;;;4.93;1.00;;;-0.70;70.90;;;;;;4151156;28;20056;-85
2023/03/12 01:43:35;;;;;;;6.22;0.88;;;-0.80;70.90;;;;;;4144921;28;20029;-86
2023/03/12 01:46:25;;;;;;;5.95;0.85;;;-0.70;70.90;;;;;;4160932;28;20456;-85
2023/03/12 01:49:03;;;;;;;11.82;1.00;;;-0.70;71.00;;;;;;4144579;28;20038;-86
2023/03/12 01:51:27;;;;;;;5.15;1.00;;;-0.80;70.90;;;;;;4162494;28;20029;-85
2023/03/12 01:53:53;;;;;;;9.82;1.00;;;-0.70;71.00;;;;;;4160180;28;20045;-85
2023/03/12 01:56:18;;;;;;;12.05;1.23;;;-0.70;71.00;;;;;;4149718;28;20057;-85
2023/03/12 01:58:49;;;;;;;9.30;0.90;;;-0.70;71.00;;;;;;4163369;28;20029;-85
2023/03/12 02:01:16;;;;;;;5.05;1.00;;;-0.60;71.10;;;;;;4143426;28;20038;-84
2023/03/12 02:03:40;;;;;;;6.68;0.80;;;-0.60;71.10;;;;;;4155211;28;20041;-85
2023/03/12 02:06:14;;;;;;;6.05;0.73;;;-0.60;71.10;;;;;;4159109;28;20033;-84
2023/03/12 02:08:49;;;;;;;13.32;1.00;;;-0.60;71.10;;;;;;4160222;28;20029;-85
2023/03/12 02:10:53;;;;;;;7.93;1.05;;;-0.60;71.10;;;;;;4157238;28;20035;-83
2023/03/12 02:13:03;;;;;;;9.75;0.93;;;-0.50;71.20;;;;;;4158323;28;20029;-85
2023/03/12 02:15:24;;;;;;;;;;;-0.60;71.10;;;;;;4143950;28;20477;-85
2023/03/12 02:17:47;;;;;;;7.68;0.80;;;-0.50;71.30;;;;;;4163511;28;19909;-85
2023/03/12 02:20:18;;;;;;;4.22;0.73;;;-0.60;71.00;;;;;;4143524;28;20109;-85
2023/03/12 02:22:48;;;;;;;6.15;0.70;;;-0.50;71.00;;;;;;4131800;28;20029;-84
2023/03/12 02:25:35;;;;;;;13.23;1.00;;;-0.50;71.10;;;;;;4159869;28;20814;-85
2023/03/12 02:28:06;;;;;;;11.88;1.13;;;-0.40;71.10;;;;;;4158650;28;20103;-84
2023/03/12 02:30:35;;;;;;;7.97;0.73;;;-0.50;71.00;;;;;;4143189;28;20136;-85
2023/03/12 02:33:00;;;;;;;8.57;1.10;;;-0.40;71.00;;;;;;4147707;28;20042;-85
2023/03/12 02:35:36;;;;;;;6.38;0.85;;;-0.30;71.00;;;;;;4158487;28;20022;-86
2023/03/12 02:37:57;;;;;;;5.97;0.70;;;-0.40;71.70;;;;;;4161061;28;20026;-85
2023/03/12 02:40:37;;;;;;;10.48;0.90;;;-0.30;71.00;;;;;;4153657;28;20083;-85
2023/03/12 02:42:59;;;;;;;14.55;1.27;;;-0.40;70.80;;;;;;4146383;28;20096;-85
2023/03/12 02:45:03;;;;;;;19.85;1.55;;;-0.40;70.80;;;;;;4140959;28;20030;-85
2023/03/12 02:47:17;;;;;;;8.27;0.70;;;-0.30;70.80;;;;;;4126691;28;20042;-85
2023/03/12 02:49:50;;;;;;;5.93;0.70;;;-0.30;70.80;;;;;;4143471;28;20034;-85
2023/03/12 02:52:11;;;;;;;9.13;0.93;;;-0.30;70.70;;;;;;4146015;28;20037;-85
2023/03/12 02:54:15;;;;;;;6.80;1.02;;;-0.20;70.80;;;;;;4143723;28;20054;-84
2023/03/12 02:56:36;;;;;;;9.85;0.93;;;-0.20;70.70;;;;;;4157099;28;20574;-85
2023/03/12 02:58:38;;;;;;;9.83;1.07;;;-0.30;70.50;;;;;;4145005;28;20021;-85
2023/03/12 03:00:58;;;;;;;6.85;0.73;;;-0.20;70.50;;;;;;4157804;28;20040;-85
2023/03/12 03:03:28;;;;;;;9.98;0.75;;;-0.20;70.40;;;;;;4156718;28;20048;-84
2023/03/12 03:05:51;;;;;;;6.20;0.73;;;-0.30;70.30;;;;;;4154194;28;20033;-84
2023/03/12 03:08:14;;;;;;;5.22;0.57;;;-0.30;70.10;;;;;;4138715;28;20030;-85
2023/03/12 03:10:35;;;;;;;7.53;1.03;;;-0.20;70.10;;;;;;4150795;28;20113;-84
2023/03/12 03:12:56;;;;;;;6.00;0.65;;;-0.30;70.00;;;;;;4141642;28;20339;-84
2023/03/12 03:15:17;;;;;;;11.50;0.90;;;-0.30;69.40;;;;;;4139340;28;20045;-85
2023/03/12 03:17:38;;;;;;;8.27;0.80;;;-0.20;70.00;;;;;;4155378;28;20034;-85
2023/03/12 03:19:38;;;;;;;5.35;0.70;;;-0.20;69.90;;;;;;4142716;28;20026;-86
2023/03/12 03:21:39;;;;;;;11.55;0.98;;;-0.30;69.80;;;;;;4142132;28;20026;-85
2023/03/12 03:23:40;;;;;;;5.68;0.60;;;-0.30;69.80;;;;;;4161499;28;20030;-85
2023/03/12 03:25:43;;;;;;;7.18;0.73;;;-0.30;69.80;;;;;;4140914;28;20041;-84
2023/03/12 03:27:43;;;;;;;;;;;-0.40;69.70;;;;;;4162646;28;20063;-85
2023/03/12 03:29:45;;;;;;;6.28;0.70;;;-0.20;69.60;;;;;;4160562;28;19917;-85
2023/03/12 03:31:45;;;;;;;7.15;0.80;;;-0.20;69.70;;;;;;4143207;28;20057;-85
2023/03/12 03:34:05;;;;;;;3.65;0.80;;;-0.30;69.60;;;;;;4144025;28;20033;-85
2023/03/12 03:36:32;;;;;;;4.57;0.30;;;-0.30;69.50;;;;;;4154694;28;20029;-84
2023/03/12 03:38:36;;;;;;;2.13;0.43;;;-0.40;69.50;;;;;;4148561;28;20081;-85
2023/03/12 03:40:37;;;;;;;12.98;0.95;;;-0.40;69.40;;;;;;4167721;28;20029;-84
2023/03/12 03:42:40;;;;;;;3.15;0.45;;;-0.40;69.40;;;;;;4162526;28;20033;-86
2023/03/12 03:44:41;;;;;;;2.90;0.55;;;-0.30;69.40;;;;;;4164401;28;20072;-85
2023/03/12 03:46:54;;;;;;;;;;;;;;;;;;;;;
2023/03/12 03:49:06;;;;;;;12.15;1.00;;;-0.30;69.40;;;;;;4165310;28;20037;-85
2023/03/12 03:51:13;;;;;;;14.07;1.58;;;-0.30;69.30;;;;;;4147459;28;20036;-85
2023/03/12 03:53:34;;;;;;;11.93;1.00;;;-0.40;69.20;;;;;;4165123;28;20120;-85
2023/03/12 03:56:06;;;;;;;5.65;1.10;;;-0.30;69.20;;;;;;4146194;28;20082;-85
2023/03/12 03:58:15;;;;;;;8.43;1.25;;;-0.40;69.10;;;;;;4161074;28;20037;-85
2023/03/12 04:00:36;;;;;;;7.80;1.42;;;-0.40;68.90;;;;;;4149860;28;20050;-84
2023/03/12 04:02:56;;;;;;;5.95;0.90;;;-0.50;68.80;;;;;;4151691;28;20112;-84
2023/03/12 04:05:18;;;;;;;5.57;0.75;;;-0.50;68.70;;;;;;4163232;28;20114;-84
2023/03/12 04:07:44;;;;;;;7.60;0.82;;;-0.50;68.70;;;;;;4162616;28;20037;-84
2023/03/12 04:10:05;;;;;;;4.20;0.80;;;-0.50;68.60;;;;;;4163913;28;20044;-86
2023/03/12 04:12:26;;;;;;;6.20;0.70;;;-0.60;68.60;;;;;;4165330;28;20029;-85
2023/03/12 04:14:47;;;;;;;5.57;0.85;;;-0.60;68.50;;;;;;4162286;28;20030;-85
2023/03/12 04:17:21;;;;;;;5.85;0.80;;;-0.50;68.60;;;;;;4165696;28;20037;-83
2023/03/12 04:19:50;;;;;;;4.30;0.60;;;-0.50;68.70;;;;;;4164554;28;20048;-85
2023/03/12 04:22:11;;;;;;;;;;;-0.60;68.50;;;;;;4167861;28;20116;-85
2023/03/12 04:24:32;;;;;;;5.22;0.77;;;-0.70;68.20;;;;;;4167260;28;19944;-84
2023/03/12 04:26:52;;;;;;;6.82;1.00;;;-0.60;68.40;;;;;;4154851;28;20106;-85
2023/03/12 04:29:13;;;;;;;4.53;0.55;;;-0.60;68.40;;;;;;4152298;28;20026;-84
2023/03/12 04:31:34;;;;;;;8.30;0.88;;;-0.80;68.30;;;;;;4166189;28;20039;-86
2023/03/12 04:33:57;;;;;;;3.40;0.52;;;-0.70;68.30;;;;;;4170888;28;20056;-85
2023/03/12 04:36:18;;;;;;;6.22;0.70;;;-0.70;68.40;;;;;;4167941;28;20026;-85
2023/03/12 04:38:41;;;;;;;9.55;0.80;;;-0.80;68.40;;;;;;4162562;28;20254;-86
2023/03/12 04:41:11;;;;;;;7.70;0.85;;;-0.90;68.40;;;;;;4164891;28;20113;-86
2023/03/12 04:43:22;;;;;;;6.65;0.85;;;-0.90;68.40;;;;;;4154783;28;20064;-84
2023/03/12 04:45:22;;;;;;;4.60;0.90;;;-0.80;68.50;;;;;;4158109;28;20034;-84
2023/03/12 04:47:52;;;;;;;12.05;0.73;;;-0.90;68.50;;;;;;4142960;28;20034;-86
2023/03/12 04:49:53;;;;;;;5.63;0.60;;;-0.90;68.40;;;;;;4161753;28;20040;-84
2023/03/12 04:51:53;;;;;;;4.95;0.70;;;-1.00;68.40;;;;;;4146587;28;20030;-84
2023/03/12 04:53:59;;;;;;;8.27;0.77;;;-0.90;68.50;;;;;;4162213;28;20044;-85
2023/03/12 04:55:59;;;;;;;5.57;0.60;;;-0.90;68.40;;;;;;4162705;28;20026;-84
2023/03/12 04:58:00;;;;;;;5.03;0.60;;;-1.10;68.40;;;;;;4135255;28;20539;-84
2023/03/12 05:00:09;;;;;;;8.23;0.73;;;-0.90;68.50;;;;;;4150829;28;20033;-85
2023/03/12 05:02:10;;;;;;;6.05;0.55;;;-1.10;68.30;;;;;;4165251;28;20534;-86
2023/03/12 05:04:47;;;;;;;2.22;0.40;;;-1.00;68.40;;;;;;4139346;28;20054;-84
2023/03/12 05:06:48;;;;;;;4.03;0.57;;;-1.00;68.50;;;;;;4113661;28;20042;-85
2023/03/12 05:08:51;;;;;;;4.38;0.70;;;-1.10;68.50;;;;;;4087785;29;20115;-85
2023/03/12 05:10:52;;;;;;;6.07;0.80;;;-1.10;68.50;;;;;;4117039;28;20036;-85
2023/03/12 05:12:53;;;;;;;3.22;0.60;;;-1.10;68.50;;;;;;4105095;28;20562;-85
2023/03/12 05:14:53;;;;;;;3.38;0.73;;;-1.10;68.60;;;;;;4086492;29;20044;-86
2023/03/12 05:16:58;;;;;;;3.05;0.90;;;-1.00;68.70;;;;;;4112396;28;20030;-84
2023/03/12 05:19:01;;;;;;;4.57;0.75;;;-1.10;68.70;;;;;;4114776;28;20056;-85
2023/03/12 05:21:13;;;;;;;6.82;0.88;;;-1.10;68.70;;;;;;4111480;28;20529;-85
2023/03/12 05:23:14;;;;;;;4.35;0.75;;;-1.10;68.70;;;;;;4100984;28;20149;-83
2023/03/12 05:25:15;;;;;;;4.60;0.52;;;-1.10;68.80;;;;;;4115854;28;20039;-84
2023/03/12 05:27:16;;;;;;;4.80;0.90;;;-1.10;68.90;;;;;;4115717;28;20034;-83
2023/03/12 05:29:20;;;;;;;3.30;0.75;;;-1.20;68.80;;;;;;4117489;28;20042;-85
2023/03/12 05:31:21;;;;;;;2.88;0.60;;;-1.20;68.70;;;;;;4118661;28;20022;-86
2023/03/12 05:33:22;;;;;;;4.28;0.82;;;-1.20;69.60;;;;;;4085344;29;20128;-86
2023/03/12 05:35:22;;;;;;;2.55;0.60;;;-1.10;69.00;;;;;;4111505;28;20127;-85
2023/03/12 05:37:25;;;;;;;5.10;0.68;;;-1.20;69.00;;;;;;4091040;28;20039;-85
2023/03/12 05:39:26;;;;;;;5.88;0.63;;;-1.10;69.20;;;;;;4118484;28;20100;-85
2023/03/12 05:41:28;;;;;;;6.07;0.95;;;-1.30;69.20;;;;;;4137829;28;20073;-84
2023/03/12 05:43:29;;;;;;;5.55;0.65;;;-1.10;69.40;;;;;;4134632;28;20091;-84
2023/03/12 05:45:49;;;;;;;4.68;0.82;;;-1.10;70.20;;;;;;4151378;28;20519;-83
2023/03/12 05:48:03;;;;;;;4.78;0.70;;;-1.20;70.20;;;;;;4144455;28;20033;-84
2023/03/12 05:50:18;;;;;;;5.72;0.85;;;-1.20;69.60;;;;;;4148677;28;20058;-85
2023/03/12 05:52:29;;;;;;;7.70;0.80;;;-1.20;69.60;;;;;;4161661;28;20109;-85
2023/03/12 05:54:29;;;;;;;2.38;0.63;;;-1.10;69.80;;;;;;4147870;28;20030;-85
2023/03/12 05:56:31;;;;;;;2.97;0.77;;;-1.00;70.00;;;;;;4165131;28;20017;-83
2023/03/12 05:58:41;;;;;;;7.85;0.90;;;-1.00;70.00;;;;;;4147330;28;20219;-83
2023/03/12 06:01:02;;;;;;;4.68;0.80;;;-1.00;70.00;;;;;;4160217;28;20026;-84
2023/03/12 06:03:27;;;;;;;4.05;0.60;;;-1.00;70.10;;;;;;4158706;28;20033;-85
2023/03/12 06:05:34;;;;;;;5.20;0.85;;;-1.00;70.20;;;;;;4148184;28;20022;-83
2023/03/12 06:07:56;;;;;;;4.20;0.80;;;-1.00;70.10;;;;;;4165274;28;20045;-85
2023/03/12 06:09:59;;;;;;;4.75;0.82;;;-1.10;70.20;;;;;;4148728;28;20045;-85
2023/03/12 06:12:02;;;;;;;3.58;0.82;;;-0.90;70.30;;;;;;4127967;28;20031;-85
2023/03/12 06:14:08;;;;;;;5.53;0.40;;;-1.00;70.30;;;;;;4147560;28;20188;-86
2023/03/12 06:16:24;;;;;;;2.35;0.70;;;-0.90;70.40;;;;;;4145573;28;20080;-86
2023/03/12 06:18:27;;;;;;;5.45;0.70;;;-1.00;70.30;;;;;;4145105;28;20060;-85
2023/03/12 06:20:34;;;;;;;4.63;0.70;;;-1.00;70.40;;;;;;4139775;28;20172;-86
2023/03/12 06:22:39;;;;;;;8.02;1.00;;;-0.90;70.50;;;;;;4157213;28;20025;-85
2023/03/12 06:24:41;;;;;;;3.33;0.82;;;-1.00;70.40;;;;;;4140955;28;20376;-85
2023/03/12 06:26:51;;;;;;;3.47;0.75;;;-0.90;70.50;;;;;;4140583;28;20113;-84
2023/03/12 06:28:57;;;;;;;4.82;0.60;;;-0.80;70.60;;;;;;4139224;28;20116;-85
2023/03/12 06:31:03;;;;;;;7.18;1.17;;;-1.00;70.50;;;;;;4157869;28;20028;-85
2023/03/12 06:33:07;;;;;;;7.15;0.88;;;-0.90;70.60;;;;;;4157645;28;21042;-85
2023/03/12 06:35:16;;;;;;;5.28;0.65;;;-0.70;70.80;;;;;;4162883;28;20040;-83
2023/03/12 06:37:17;;;;;;;8.48;0.60;;;-0.90;70.80;;;;;;4147221;28;21367;-85
2023/03/12 06:39:17;;;;;;;7.10;0.70;;;-0.70;70.90;;;;;;4145487;28;20048;-86
2023/03/12 06:41:19;;;;;;;3.13;0.70;;;-0.80;71.00;;;;;;4164153;28;20041;-85
2023/03/12 06:43:23;;;;;;;4.40;0.55;;;-0.80;70.90;;;;;;4158350;28;20029;-86
2023/03/12 06:45:25;;;;;;;17.40;9.50;;;-0.80;71.00;;;;;;4142020;28;20030;-86
2023/03/12 06:47:26;;;;;;;5.50;1.75;;;-0.70;71.20;;;;;;4142320;28;20028;-87
2023/03/12 06:49:31;;;;;;;5.80;1.50;;;-0.70;71.30;;;;;;4122103;28;20034;-85
2023/03/12 06:51:33;;;;;;;7.40;1.02;;;-0.60;71.40;;;;;;4145213;28;20053;-84
2023/03/12 06:53:37;;;;;;;5.57;1.20;;;-0.60;71.40;;;;;;4127988;28;20037;-85
2023/03/12 06:55:53;;;;;;;7.35;1.40;;;-0.60;71.50;;;;;;4157166;28;20037;-84
2023/03/12 06:58:14;;;;;;;10.82;1.35;;;-0.60;71.50;;;;;;4144128;28;20026;-84
2023/03/12 07:00:41;;;;;;;3.15;0.85;;;-0.50;71.50;;;;;;4157410;28;20037;-84
2023/03/12 07:03:01;;;;;;;4.28;0.85;;;-0.50;71.50;;;;;;4158945;28;20057;-85
2023/03/12 07:05:26;;;;;;;5.35;0.90;;;-0.40;71.60;;;;;;4155441;28;20124;-84
2023/03/12 07:07:50;;;;;;;5.85;0.80;;;-0.50;71.50;;;;;;4152888;28;20089;-84
2023/03/12 07:10:26;;;;;;;10.13;0.80;;;-0.30;71.60;;;;;;4159666;28;20034;-83
2023/03/12 07:12:27;;;;;;;8.75;1.02;;;-0.40;71.70;;;;;;4158816;28;20029;-84
2023/03/12 07:14:51;;;;;;;5.10;0.95;;;-0.20;71.90;;;;;;4148509;28;20038;-84
2023/03/12 07:17:15;;;;;;;6.32;0.70;;;-0.30;72.00;;;;;;4159730;28;20030;-85
2023/03/12 07:19:35;;;;;;;7.32;0.85;;;-0.20;72.10;;;;;;4156217;28;20108;-84
2023/03/12 07:21:56;;;;;;;5.30;0.60;;;-0.10;72.20;;;;;;4153891;28;20124;-85
2023/03/12 07:24:45;;;;;;;3.22;0.65;;;-0.10;72.30;;;;;;4153811;28;20351;-84
2023/03/12 07:27:09;;;;;;;5.82;0.90;;;0.00;72.40;;;;;;4153821;28;20021;-84
2023/03/12 07:29:35;;;;;;;6.10;0.90;;;0.00;72.40;;;;;;4156701;28;20029;-84
2023/03/12 07:31:59;;;;;;;9.35;1.40;;;0.10;72.50;;;;;;4143008;28;20034;-84
2023/03/12 07:34:22;;;;;;;;;;;0.20;72.80;;;;;;4141783;28;20037;-84
2023/03/12 07:36:43;;;;;;;2.78;0.70;;;0.20;73.60;;;;;;4153373;28;19928;-84
2023/03/12 07:39:04;;;;;;;5.68;0.88;;;0.20;72.80;;;;;;4155104;28;20092;-84
2023/03/12 07:41:04;;;;;;;6.15;1.20;;;0.30;73.00;;;;;;4156292;28;20050;-85
2023/03/12 07:43:12;;;;;;;5.25;1.08;;;0.30;72.80;;;;;;4118924;28;20092;-85
2023/03/12 07:45:16;;;;;;;7.93;1.27;;;0.40;72.80;;;;;;4134490;28;20049;-84
2023/03/12 07:47:30;;;;;;;;;;;;;;;;;;;;;
2023/03/12 07:49:53;;;;;;;4.35;1.10;;;0.40;72.80;;;;;;4102398;28;20061;-86
2023/03/12 07:51:54;;;;;;;11.55;1.20;;;0.50;72.80;;;;;;4087557;28;20077;-84
2023/03/12 07:53:54;;;;;;;5.63;1.17;;;0.60;72.80;;;;;;4100964;28;20808;-84
2023/03/12 07:56:01;;;;;;;7.63;0.90;;;0.50;72.80;;;;;;4092687;28;20035;-85
2023/03/12 07:58:03;;;;;;;9.48;0.90;;;0.70;72.80;;;;;;4104502;28;20050;-85
2023/03/12 08:00:09;;;;;;;7.20;0.80;;;0.60;72.70;;;;;;4086606;28;20050;-86
2023/03/12 08:02:16;;;;;;;7.80;0.95;;;0.60;72.60;;;;;;4105253;28;20187;-85
2023/03/12 08:04:16;;;;;;;6.18;1.15;;;0.70;72.80;;;;;;4108257;28;20075;-84
2023/03/12 08:06:17;;;;;;;6.50;1.15;;;0.80;72.80;;;;;;4092552;28;20200;-84
2023/03/12 08:08:18;;;;;;;5.43;0.85;;;0.80;72.80;;;;;;4105424;28;20434;-84
2023/03/12 08:10:22;;;;;;;3.75;0.98;;;0.90;72.80;;;;;;4086749;28;20712;-84
2023/03/12 08:12:24;;;;;;;7.50;0.95;;;0.90;72.80;;;;;;4073458;29;20035;-84
2023/03/12 08:14:24;;;;;;;3.90;0.77;;;1.00;72.80;;;;;;4087425;28;20855;-84
2023/03/12 08:16:25;;;;;;;17.35;1.65;;;1.00;72.70;;;;;;4091201;28;20599;-84
2023/03/12 08:18:28;;;;;;;6.53;0.93;;;1.20;72.80;;;;;;4089389;28;20502;-84
2023/03/12 08:20:31;;;;;;;3.47;0.85;;;1.10;72.70;;;;;;4096846;28;20507;-84
2023/03/12 08:22:32;;;;;;;8.75;1.10;;;1.20;72.60;;;;;;4134489;28;20034;-83
2023/03/12 08:24:41;;;;;;;4.65;0.80;;;1.20;72.60;;;;;;4155902;28;20030;-83
2023/03/12 08:26:42;;;;;;;4.20;1.08;;;1.30;72.50;;;;;;4137072;28;20097;-83
2023/03/12 08:29:42;;;;;;;6.22;0.82;;;1.30;72.40;;;;;;4119228;28;20357;-85
2023/03/12 08:31:55;;;;;;;4.00;0.90;;;1.40;72.30;;;;;;4076664;29;20109;-84
2023/03/12 08:34:05;;;;;;;14.90;1.10;;;1.40;72.20;;;;;;4080081;29;20058;-84
2023/03/12 08:36:15;;;;;;;12.00;0.90;;;1.50;72.10;;;;;;4081510;29;20036;-83
2023/03/12 08:38:21;;;;;;;4.60;0.98;;;1.60;72.10;;;;;;4059094;29;20071;-84
2023/03/12 08:40:24;;;;;;;4.20;0.95;;;1.70;72.10;;;;;;4064049;29;20058;-84
2023/03/12 08:42:48;;;;;;;6.95;0.77;;;1.80;72.20;;;;;;4097529;28;20063;-83
2023/03/12 08:44:57;;;;;;;6.15;0.98;;;1.70;72.10;;;;;;4060688;29;20060;-83
2023/03/12 08:47:13;;;;;;;3.75;1.25;;;1.90;72.20;;;;;;4084164;29;20028;-84
2023/03/12 08:49:14;;;;;;;7.20;0.90;;;1.90;72.10;;;;;;4093637;28;20042;-83
2023/03/12 08:51:28;;;;;;;4.18;0.95;;;2.00;72.10;;;;;;4083490;29;20043;-86
2023/03/12 08:53:37;;;;;;;5.35;1.05;;;2.00;71.80;;;;;;4096224;28;20031;-84
2023/03/12 08:55:40;;;;;;;6.18;1.27;;;2.20;71.90;;;;;;4082766;29;20050;-82
2023/03/12 08:57:41;;;;;;;7.55;1.48;;;2.20;71.70;;;;;;4090093;28;20170;-83
2023/03/12 08:59:42;;;;;;;5.68;1.30;;;2.10;71.50;;;;;;4080133;29;20031;-85
2023/03/12 09:01:52;;;;;;;4.70;1.25;;;2.30;71.50;;;;;;4088391;28;20094;-84
2023/03/12 09:03:54;;;;;;;7.20;1.40;;;2.40;71.40;;;;;;4067379;29;20120;-85
2023/03/12 09:06:14;;;;;;;7.00;1.15;;;2.40;71.40;;;;;;4094335;28;20051;-82
2023/03/12 09:08:24;;;;;;;15.52;1.63;;;2.40;71.30;;;;;;4113229;28;20124;-80
2023/03/12 09:10:28;;;;;;;14.30;1.40;;;2.50;71.30;;;;;;4158363;28;20127;-80
2023/03/12 09:12:29;;;;;;;6.05;1.40;;;2.50;71.30;;;;;;4146537;28;20038;-81
2023/03/12 09:14:30;;;;;;;4.40;1.20;;;2.70;71.50;;;;;;4127825;28;20582;-81
2023/03/12 09:16:31;;;;;;;5.90;1.75;;;2.70;71.60;;;;;;4114648;28;20023;-82
2023/03/12 09:18:37;;;;;;;6.63;1.52;;;2.80;71.70;;;;;;4134702;28;20036;-82
2023/03/12 09:20:42;;;;;;;8.85;1.75;;;2.90;71.70;;;;;;4133697;28;20040;-83
2023/03/12 09:22:46;;;;;;;8.00;1.98;;;2.90;71.60;;;;;;4120032;28;20050;-81
2023/03/12 09:24:50;;;;;;;9.55;2.17;;;2.90;71.60;;;;;;4122155;28;20503;-82
2023/03/12 09:26:54;;;;;;;13.48;2.47;;;3.00;71.60;;;;;;4120585;28;20117;-84
2023/03/12 09:28:58;;;;;;;11.35;2.13;;;3.10;71.60;;;;;;4138942;28;20176;-85
2023/03/12 09:31:11;;;;;;;10.23;2.67;;;3.20;71.70;;;;;;4127075;28;20085;-84
2023/03/12 09:33:17;;;;;;;11.13;2.30;;;3.20;71.60;;;;;;4144442;28;20053;-84
2023/03/12 09:35:19;;;;;;;6.38;2.25;;;3.30;71.50;;;;;;4155709;28;20112;-84
2023/03/12 09:37:20;;;;;;;8.13;2.13;;;3.50;71.40;;;;;;4122337;28;20191;-85
2023/03/12 09:39:22;;;;;;;10.73;3.03;;;3.60;71.20;;;;;;4133882;28;20045;-83
2023/03/12 09:41:33;;;;;;;7.30;2.28;;;3.60;70.90;;;;;;4152050;28;20080;-84
2023/03/12 09:43:47;;;;;;;8.05;1.88;;;3.70;70.60;;;;;;4148958;28;20051;-84
2023/03/12 09:46:02;;;;;;;5.50;2.30;;;3.60;70.30;;;;;;4136038;28;20050;-83
2023/03/12 09:48:12;;;;;;;10.50;2.70;;;3.70;70.30;;;;;;4092926;28;20046;-83
2023/03/12 09:50:33;;;;;;;9.57;2.35;;;3.80;70.20;;;;;;4136821;28;20080;-85
2023/03/12 09:52:53;;;;;;;6.00;2.33;;;3.90;69.90;;;;;;4139507;28;20639;-83
2023/03/12 09:55:18;;;;;;;5.63;2.00;;;3.90;69.80;;;;;;4129811;28;20864;-84
2023/03/12 09:57:24;;;;;;;5.95;2.35;;;3.90;69.70;;;;;;4117174;28;20736;-82
2023/03/12 09:59:28;;;;;;;6.75;2.72;;;4.00;69.90;;;;;;4114083;28;20452;-83
2023/03/12 10:01:54;;;;;;;7.60;2.72;;;4.10;69.80;;;;;;4116130;28;20058;-82
2023/03/12 10:05:00;;;;;;;10.68;2.65;;;4.10;69.50;;;;;;4113757;28;20046;-83
2023/03/12 10:07:19;;;;;;;8.93;2.65;;;4.20;69.40;;;;;;4035099;29;20058;-82
2023/03/12 10:09:54;;;;;;;7.95;2.50;;;4.20;69.30;;;;;;4065241;29;20261;-81
2023/03/12 10:12:14;;;;;;;6.63;2.60;;;4.30;69.00;;;;;;4068043;29;20156;-81
2023/03/12 10:14:21;;;;;;;8.30;2.72;;;4.40;69.10;;;;;;4072154;29;20111;-80
2023/03/12 10:16:56;;;;;;;5.65;2.50;;;4.40;69.30;;;;;;4071099;29;20039;-80
2023/03/12 10:19:00;;;;;;;6.07;3.20;;;4.40;69.20;;;;;;4038647;29;20048;-84
2023/03/12 10:21:14;;;;;;;;;;;4.40;69.40;;;;;;4033368;29;20156;-82
2023/03/12 10:23:26;;;;;;;8.68;3.05;;;4.50;69.30;;;;;;4024405;29;19920;-82
2023/03/12 10:25:39;;;;;;;7.55;2.85;;;4.60;69.40;;;;;;4040099;29;20029;-81
2023/03/12 10:27:51;;;;;;;8.82;3.90;;;4.70;69.40;;;;;;4041404;29;20045;-83
2023/03/12 10:29:58;;;;;;;14.05;3.67;;;4.80;69.10;;;;;;4034058;29;20059;-83
2023/03/12 10:32:10;;;;;;;10.77;3.92;;;4.80;68.80;;;;;;4035470;29;20578;-81
2023/03/12 10:34:22;;;;;;;10.60;3.50;;;4.90;68.60;;;;;;4038159;29;20092;-82
2023/03/12 10:36:34;;;;;;;15.45;3.95;;;5.00;68.30;;;;;;4038926;29;20123;-82
2023/03/12 10:38:35;;;;;;;10.25;3.58;;;5.00;68.10;;;;;;4037835;29;20044;-81
2023/03/12 10:40:37;;;;;;;8.55;4.20;;;5.00;68.00;;;;;;4036483;28;20752;-83
2023/03/12 10:42:38;;;;;;;8.00;3.90;;;5.10;67.90;;;;;;4083816;28;20211;-83
2023/03/12 10:45:23;;;;;;;10.68;3.72;;;5.10;67.80;;;;;;4049294;29;20052;-84
2023/03/12 10:47:37;;;;;;;8.05;3.78;;;5.00;67.60;;;;;;4055534;29;20087;-81
2023/03/12 10:49:40;;;;;;;7.78;3.85;;;5.10;67.60;;;;;;4079041;28;20169;-81
2023/03/12 10:51:55;;;;;;;9.45;4.70;;;5.20;67.70;;;;;;4090018;28;20035;-81
2023/03/12 10:54:29;;;;;;;7.80;4.13;;;5.20;67.50;;;;;;4080237;28;20593;-83
2023/03/12 10:56:55;;;;;;;10.95;4.22;;;5.10;66.70;;;;;;4121081;28;20026;-82
2023/03/12 10:59:41;;;;;;;11.93;4.40;;;5.10;66.30;;;;;;4148496;28;20558;-82
2023/03/12 11:01:57;;;;;;;9.55;4.28;;;5.20;66.30;;;;;;4136742;28;20056;-82
2023/03/12 11:04:23;;;;;;;15.73;4.85;;;5.10;66.40;;;;;;4136813;28;20025;-82
2023/03/12 11:07:15;;;;;;;9.77;4.60;;;5.20;66.20;;;;;;4152542;28;20026;-81
2023/03/12 11:09:35;;;;;;;9.00;4.85;;;5.10;66.20;;;;;;4147378;28;20033;-80
2023/03/12 11:11:59;;;;;;;9.15;4.60;;;5.10;66.30;;;;;;4154949;28;20040;-82
2023/03/12 11:14:25;;;;;;;11.25;4.57;;;5.10;66.30;;;;;;4150743;28;20124;-82
2023/03/12 11:16:46;;;;;;;7.88;4.10;;;5.10;66.30;;;;;;4153886;28;20038;-80
2023/03/12 11:19:22;;;;;;;14.70;4.93;;;5.00;66.20;;;;;;4152524;28;20038;-80
2023/03/12 11:22:34;;;;;;;10.52;4.55;;;5.10;66.30;;;;;;4145407;28;20030;-84
2023/03/12 11:25:00;;;;;;;10.60;5.18;;;5.00;65.80;;;;;;4151729;28;20040;-83
2023/03/12 11:27:41;;;;;;;11.32;4.60;;;5.00;66.80;;;;;;4150754;28;20021;-84
2023/03/12 11:30:09;;;;;;;18.60;4.80;;;5.00;65.90;;;;;;4149197;28;20517;-83
2023/03/12 11:32:35;;;;;;;11.25;4.70;;;5.00;66.10;;;;;;4151724;28;20120;-81
2023/03/12 11:34:56;;;;;;;10.55;5.03;;;5.10;66.30;;;;;;4135239;28;20045;-81
2023/03/12 11:37:39;;;;;;;;;;;5.10;66.00;;;;;;4154158;28;20048;-81
2023/03/12 11:40:34;;;;;;;6.78;4.32;;;5.00;65.60;;;;;;4156786;28;19921;-83
2023/03/12 11:43:12;;;;;;;11.07;4.78;;;5.00;65.50;;;;;;4135373;28;20034;-81
2023/03/12 11:45:46;;;;;;;10.57;5.05;;;5.00;65.40;;;;;;4135537;28;20053;-84
2023/03/12 11:48:04;;;;;;;15.23;4.85;;;5.00;65.30;;;;;;4135492;28;20030;-81